Time;durP1;ratioP1;P1;durP2;ratioP2;P2;SDS_P1;SDS_P2;PMS_P1;PMS_P2;Temp;Humidity;BMP_temperature;BMP_pressure;BME280_temperature;BME280_humidity;BME280_pressure;Samples;Min_cycle;Max_cycle;Signal;HPM_P1;HPM_P2
2021/10/14 00:02:23;;;;;;;10.32;4.90;;;14.30;91.60;;;;;;5112747;28;20330;-76
2021/10/14 00:04:49;;;;;;;8.95;4.75;;;14.40;91.60;;;;;;5113909;28;20102;-76
2021/10/14 00:07:14;;;;;;;8.18;5.07;;;14.40;91.60;;;;;;5113802;27;20032;-77
2021/10/14 00:09:40;;;;;;;11.88;5.90;;;14.40;91.60;;;;;;5113942;28;20500;-77
2021/10/14 00:12:06;;;;;;;8.77;4.90;;;14.30;91.50;;;;;;5113721;28;20043;-76
2021/10/14 00:14:32;;;;;;;9.73;5.22;;;14.30;91.50;;;;;;5113942;28;20098;-77
2021/10/14 00:16:57;;;;;;;10.15;5.55;;;14.30;91.50;;;;;;5113975;28;20035;-77
2021/10/14 00:19:23;;;;;;;9.98;5.25;;;14.30;91.50;;;;;;5113626;28;20034;-77
2021/10/14 00:21:49;;;;;;;9.55;5.43;;;14.30;91.50;;;;;;5112430;28;20028;-77
2021/10/14 00:24:15;;;;;;;10.13;5.65;;;14.30;91.50;;;;;;5113486;28;20042;-77
2021/10/14 00:26:41;;;;;;;8.50;5.18;;;14.30;91.50;;;;;;5095280;28;20039;-76
2021/10/14 00:29:06;;;;;;;8.57;5.20;;;14.20;91.50;;;;;;5113617;28;20109;-76
2021/10/14 00:31:32;;;;;;;9.73;4.82;;;14.30;91.50;;;;;;5112197;28;20035;-76
2021/10/14 00:33:58;;;;;;;10.13;5.35;;;14.20;91.50;;;;;;5113412;28;20027;-77
2021/10/14 00:36:25;;;;;;;7.95;4.93;;;14.30;91.50;;;;;;5095167;28;20081;-76
2021/10/14 00:38:50;;;;;;;8.10;4.90;;;14.20;91.50;;;;;;5111980;28;20112;-78
2021/10/14 00:41:17;;;;;;;7.65;4.43;;;14.20;91.40;;;;;;5113265;28;20119;-77
2021/10/14 00:43:42;;;;;;;7.13;4.30;;;14.20;91.40;;;;;;5113223;28;20036;-77
2021/10/14 00:46:18;;;;;;;6.85;3.70;;;14.10;91.30;;;;;;5113101;28;20031;-75
2021/10/14 00:48:44;;;;;;;7.95;3.70;;;14.10;91.30;;;;;;5111640;28;20035;-76
2021/10/14 00:51:10;;;;;;;9.43;3.95;;;14.10;91.30;;;;;;5111144;28;20126;-77
2021/10/14 00:53:39;;;;;;;11.52;3.97;;;14.10;91.30;;;;;;5113281;28;20107;-75
2021/10/14 00:56:06;;;;;;;7.07;3.50;;;14.00;91.20;;;;;;5113130;28;20106;-76
2021/10/14 00:58:36;;;;;;;5.50;2.95;;;14.10;91.30;;;;;;5111812;28;20051;-77
2021/10/14 01:01:04;;;;;;;6.28;2.90;;;14.00;91.20;;;;;;5113119;28;20104;-76
2021/10/14 01:03:30;;;;;;;6.57;2.75;;;14.00;91.20;;;;;;5112902;28;20072;-77
2021/10/14 01:05:57;;;;;;;5.40;2.88;;;14.00;91.20;;;;;;5112647;28;20023;-76
2021/10/14 01:08:23;;;;;;;5.55;3.17;;;13.90;91.10;;;;;;5112787;28;20028;-76
2021/10/14 01:10:49;;;;;;;;;;;13.90;91.10;;;;;;5111877;28;20054;-76
2021/10/14 01:13:16;;;;;;;7.18;3.13;;;14.00;91.10;;;;;;5112733;28;20385;-77
2021/10/14 01:15:42;;;;;;;6.85;3.40;;;14.00;91.00;;;;;;5094522;28;20451;-77
2021/10/14 01:18:08;;;;;;;6.63;3.38;;;14.00;91.10;;;;;;5112398;28;20456;-76
2021/10/14 01:20:33;;;;;;;5.30;3.00;;;13.90;91.00;;;;;;5112557;28;20119;-78
2021/10/14 01:22:59;;;;;;;5.55;2.95;;;13.90;91.00;;;;;;5111151;28;20073;-77
2021/10/14 01:25:25;;;;;;;8.32;3.58;;;13.90;91.10;;;;;;5111089;28;20527;-76
2021/10/14 01:27:52;;;;;;;8.93;3.58;;;13.90;91.10;;;;;;5112518;28;20023;-76
2021/10/14 01:30:18;;;;;;;6.07;3.10;;;13.90;91.10;;;;;;5112338;28;20470;-77
2021/10/14 01:32:47;;;;;;;5.30;2.92;;;13.90;91.10;;;;;;5110867;28;20035;-77
2021/10/14 01:35:13;;;;;;;7.72;3.58;;;13.90;91.10;;;;;;5112289;28;20145;-77
2021/10/14 01:37:39;;;;;;;6.07;3.85;;;13.90;91.10;;;;;;5110869;28;20537;-77
2021/10/14 01:40:05;;;;;;;5.82;3.03;;;13.90;91.10;;;;;;5110795;28;20067;-77
2021/10/14 01:42:31;;;;;;;6.68;3.20;;;13.90;91.10;;;;;;5112354;28;20156;-76
2021/10/14 01:45:01;;;;;;;7.90;3.40;;;13.90;91.10;;;;;;5110584;28;20038;-77
2021/10/14 01:47:29;;;;;;;9.13;3.00;;;13.90;91.10;;;;;;5112161;28;20023;-77
2021/10/14 01:49:54;;;;;;;6.60;2.97;;;13.90;91.40;;;;;;5111804;28;20044;-77
2021/10/14 01:52:20;;;;;;;6.07;2.78;;;13.80;91.10;;;;;;5111925;28;20028;-76
2021/10/14 01:54:46;;;;;;;7.22;2.83;;;13.80;91.10;;;;;;5093571;28;20539;-77
2021/10/14 01:57:12;;;;;;;8.25;2.97;;;13.80;91.20;;;;;;5110989;28;20023;-76
2021/10/14 01:59:37;;;;;;;8.63;2.75;;;13.80;91.10;;;;;;5110698;28;20481;-76
2021/10/14 02:02:03;;;;;;;4.47;2.20;;;13.80;91.10;;;;;;5111192;28;20038;-77
2021/10/14 02:04:29;;;;;;;7.20;3.00;;;13.80;91.10;;;;;;5112038;28;20032;-77
2021/10/14 02:06:54;;;;;;;6.10;2.65;;;13.70;91.00;;;;;;5093368;28;20092;-77
2021/10/14 02:09:20;;;;;;;6.10;2.95;;;13.80;91.00;;;;;;5111737;28;20073;-77
2021/10/14 02:11:46;;;;;;;5.45;2.95;;;13.80;91.00;;;;;;5111673;28;20032;-76
2021/10/14 02:14:11;;;;;;;6.60;3.35;;;13.80;91.10;;;;;;5111669;28;20115;-76
2021/10/14 02:16:37;;;;;;;8.85;3.00;;;13.70;91.10;;;;;;5076655;28;20471;-76
2021/10/14 02:19:03;;;;;;;6.43;3.22;;;13.80;91.10;;;;;;5111624;28;20480;-76
2021/10/14 02:21:29;;;;;;;7.05;3.15;;;13.80;91.20;;;;;;5110417;28;20035;-76
2021/10/14 02:23:54;;;;;;;5.95;3.15;;;13.70;91.20;;;;;;5110278;28;20062;-76
2021/10/14 02:26:20;;;;;;;6.30;3.28;;;13.70;91.20;;;;;;5111591;28;20024;-76
2021/10/14 02:28:46;;;;;;;5.60;3.35;;;13.70;91.20;;;;;;5111622;28;20036;-77
2021/10/14 02:31:11;;;;;;;7.32;3.53;;;13.80;91.30;;;;;;5111487;28;20034;-77
2021/10/14 02:33:37;;;;;;;6.60;2.75;;;13.80;91.30;;;;;;5111630;28;20049;-77
2021/10/14 02:36:03;;;;;;;6.68;2.90;;;13.70;91.30;;;;;;5111449;28;20161;-77
2021/10/14 02:38:29;;;;;;;4.20;2.60;;;13.80;91.30;;;;;;5111511;28;20072;-76
2021/10/14 02:40:54;;;;;;;7.72;2.75;;;13.80;91.20;;;;;;5110293;28;20491;-77
2021/10/14 02:43:20;;;;;;;6.32;2.85;;;13.80;91.30;;;;;;5110029;28;20039;-76
2021/10/14 02:45:46;;;;;;;6.65;2.80;;;13.70;91.20;;;;;;5111367;28;20035;-76
2021/10/14 02:48:11;;;;;;;8.35;2.70;;;13.70;91.20;;;;;;5111435;28;20615;-77
2021/10/14 02:50:37;;;;;;;6.55;2.60;;;13.70;91.20;;;;;;5109825;28;20474;-77
2021/10/14 02:53:03;;;;;;;4.85;2.10;;;13.80;91.20;;;;;;5110102;28;20024;-76
2021/10/14 02:55:28;;;;;;;4.70;1.98;;;13.70;91.20;;;;;;5111394;28;20024;-76
2021/10/14 02:57:54;;;;;;;4.05;2.05;;;13.70;91.20;;;;;;5110306;28;20029;-76
2021/10/14 03:00:20;;;;;;;6.32;2.75;;;13.70;91.20;;;;;;5111409;28;20023;-76
2021/10/14 03:02:45;;;;;;;6.07;2.47;;;13.70;91.20;;;;;;5110109;28;20047;-76
2021/10/14 03:05:11;;;;;;;6.20;2.20;;;13.70;91.20;;;;;;5109894;28;20504;-75
2021/10/14 03:07:37;;;;;;;4.95;2.38;;;13.70;91.20;;;;;;5111224;28;20034;-77
2021/10/14 03:10:03;;;;;;;5.40;2.15;;;13.70;91.20;;;;;;5093299;28;20384;-76
2021/10/14 03:12:28;;;;;;;5.55;2.30;;;13.80;91.20;;;;;;5111140;28;20058;-76
2021/10/14 03:14:54;;;;;;;5.70;2.20;;;13.70;91.20;;;;;;5113018;28;20031;-76
2021/10/14 03:17:20;;;;;;;5.07;2.35;;;13.80;91.20;;;;;;5113578;28;20423;-76
2021/10/14 03:19:45;;;;;;;5.03;2.25;;;13.70;91.20;;;;;;5113515;28;20035;-76
2021/10/14 03:22:11;;;;;;;7.40;2.40;;;13.80;91.20;;;;;;5096591;28;20023;-76
2021/10/14 03:24:37;;;;;;;8.65;2.95;;;13.80;91.20;;;;;;5113481;28;20036;-76
2021/10/14 03:27:03;;;;;;;7.00;2.20;;;13.80;91.20;;;;;;5113556;28;20036;-76
2021/10/14 03:29:28;;;;;;;6.97;2.28;;;13.80;91.20;;;;;;5113401;28;20038;-76
2021/10/14 03:31:54;;;;;;;8.20;2.42;;;13.80;91.20;;;;;;5114903;28;20422;-77
2021/10/14 03:34:20;;;;;;;5.13;2.42;;;13.80;91.30;;;;;;5114725;28;20024;-76
2021/10/14 03:36:46;;;;;;;6.72;2.58;;;13.80;91.30;;;;;;5113231;28;20489;-76
2021/10/14 03:39:11;;;;;;;9.25;3.30;;;13.80;91.30;;;;;;5114559;28;20027;-76
2021/10/14 03:41:37;;;;;;;6.97;3.00;;;13.80;91.40;;;;;;5113218;28;20031;-76
2021/10/14 03:44:03;;;;;;;6.28;3.22;;;13.80;91.40;;;;;;5114331;28;20056;-77
2021/10/14 03:46:28;;;;;;;7.85;3.45;;;13.80;91.40;;;;;;5112984;28;20415;-78
2021/10/14 03:48:54;;;;;;;6.57;3.60;;;13.80;91.50;;;;;;5114540;28;20028;-75
2021/10/14 03:51:20;;;;;;;7.55;3.53;;;13.70;91.50;;;;;;5113797;28;20075;-77
2021/10/14 03:53:46;;;;;;;7.10;4.10;;;13.70;91.60;;;;;;5112623;28;20032;-76
2021/10/14 03:56:11;;;;;;;9.20;4.05;;;13.70;91.60;;;;;;5112882;28;20034;-77
2021/10/14 03:58:38;;;;;;;6.43;3.28;;;13.70;91.70;;;;;;5114527;28;20074;-77
2021/10/14 04:01:03;;;;;;;7.07;3.33;;;13.70;91.70;;;;;;5114147;28;20085;-78
2021/10/14 04:03:29;;;;;;;6.22;3.00;;;13.60;91.70;;;;;;5112749;28;20035;-78
2021/10/14 04:05:54;;;;;;;7.10;3.20;;;13.60;91.80;;;;;;5114173;28;20034;-77
2021/10/14 04:08:20;;;;;;;5.68;2.95;;;13.60;91.80;;;;;;5113296;28;20036;-77
2021/10/14 04:10:46;;;;;;;6.35;2.70;;;13.60;91.80;;;;;;5112956;28;20040;-78
2021/10/14 04:13:12;;;;;;;5.78;2.72;;;13.60;91.80;;;;;;5114133;28;20048;-76
2021/10/14 04:15:37;;;;;;;6.68;2.80;;;13.60;91.90;;;;;;5112319;28;20066;-77
2021/10/14 04:18:03;;;;;;;6.63;2.75;;;13.60;91.90;;;;;;5112496;28;20028;-77
2021/10/14 04:20:28;;;;;;;7.30;2.97;;;13.50;91.90;;;;;;5113829;28;20020;-77
2021/10/14 04:22:54;;;;;;;5.35;2.80;;;13.60;91.90;;;;;;5112376;28;20039;-76
2021/10/14 04:25:20;;;;;;;5.45;2.90;;;13.60;91.90;;;;;;5112968;28;20024;-77
2021/10/14 04:27:46;;;;;;;7.78;2.97;;;13.60;91.90;;;;;;5113513;28;20057;-77
2021/10/14 04:30:12;;;;;;;6.68;3.08;;;13.60;91.90;;;;;;5112181;28;20119;-78
2021/10/14 04:32:39;;;;;;;5.75;3.10;;;13.60;91.90;;;;;;5113384;28;20530;-77
2021/10/14 04:35:05;;;;;;;6.57;2.78;;;13.60;91.90;;;;;;5113342;28;20389;-78
2021/10/14 04:37:31;;;;;;;6.75;2.88;;;13.60;91.90;;;;;;5111925;28;20023;-77
2021/10/14 04:39:57;;;;;;;8.50;3.00;;;13.60;91.90;;;;;;5113282;28;20062;-77
2021/10/14 04:42:23;;;;;;;7.50;2.78;;;13.60;92.00;;;;;;5095054;28;20118;-76
2021/10/14 04:44:48;;;;;;;6.50;2.90;;;13.60;92.00;;;;;;5113108;28;20517;-77
2021/10/14 04:47:18;;;;;;;6.82;3.25;;;13.60;91.90;;;;;;5111923;28;20039;-77
2021/10/14 04:49:45;;;;;;;6.63;2.90;;;13.60;91.90;;;;;;5113013;28;20443;-77
2021/10/14 04:52:11;;;;;;;7.13;3.10;;;13.60;91.90;;;;;;5094817;28;20024;-77
2021/10/14 04:54:37;;;;;;;8.32;3.42;;;13.60;92.00;;;;;;5111728;28;20359;-77
2021/10/14 04:57:02;;;;;;;8.50;3.40;;;13.60;92.00;;;;;;5113038;28;20431;-78
2021/10/14 04:59:28;;;;;;;8.02;3.40;;;13.60;92.00;;;;;;5112994;28;20056;-78
2021/10/14 05:01:54;;;;;;;8.02;3.13;;;13.60;92.00;;;;;;5112783;28;20449;-77
2021/10/14 05:04:20;;;;;;;7.28;3.42;;;13.60;92.10;;;;;;5094487;28;20096;-77
2021/10/14 05:06:45;;;;;;;7.20;3.17;;;13.60;92.10;;;;;;5112817;28;20063;-77
2021/10/14 05:09:11;;;;;;;8.27;3.40;;;13.60;92.10;;;;;;5112707;28;20034;-77
2021/10/14 05:11:37;;;;;;;6.13;3.38;;;13.60;92.10;;;;;;5111041;28;20031;-77
2021/10/14 05:14:03;;;;;;;8.88;4.22;;;13.60;92.10;;;;;;5112541;28;20026;-78
2021/10/14 05:16:32;;;;;;;7.63;3.60;;;13.60;92.20;;;;;;5094041;28;20381;-77
2021/10/14 05:19:02;;;;;;;6.60;3.15;;;13.60;92.20;;;;;;5112285;28;20023;-77
2021/10/14 05:21:28;;;;;;;8.95;3.72;;;13.60;92.20;;;;;;5111033;28;20058;-77
2021/10/14 05:23:54;;;;;;;6.97;3.78;;;13.60;92.20;;;;;;5110784;28;20161;-77
2021/10/14 05:26:20;;;;;;;8.07;3.17;;;13.60;92.20;;;;;;5093806;28;20210;-77
2021/10/14 05:28:46;;;;;;;5.68;3.58;;;13.60;92.30;;;;;;5112301;28;20092;-78
2021/10/14 05:31:11;;;;;;;6.63;3.20;;;13.60;92.30;;;;;;5112293;28;20466;-79
2021/10/14 05:33:37;;;;;;;8.60;3.38;;;13.60;92.30;;;;;;5110809;28;20032;-77
2021/10/14 05:36:03;;;;;;;8.98;3.30;;;13.60;92.30;;;;;;5110721;28;20031;-77
2021/10/14 05:38:29;;;;;;;6.20;3.00;;;13.60;92.30;;;;;;5111259;28;20051;-77
2021/10/14 05:40:54;;;;;;;10.02;4.10;;;13.60;92.30;;;;;;5112015;28;20055;-78
2021/10/14 05:43:20;;;;;;;7.43;3.13;;;13.60;92.30;;;;;;5112056;28;20020;-77
2021/10/14 05:45:46;;;;;;;7.28;3.40;;;13.60;92.30;;;;;;5110679;28;20501;-77
2021/10/14 05:48:11;;;;;;;6.22;2.67;;;13.60;92.30;;;;;;5111951;28;20098;-77
2021/10/14 05:50:37;;;;;;;6.72;2.90;;;13.70;92.30;;;;;;5111822;27;20047;-76
2021/10/14 05:53:03;;;;;;;11.05;3.53;;;13.70;92.30;;;;;;5110256;28;20063;-72
2021/10/14 05:55:29;;;;;;;9.25;4.22;;;13.70;92.40;;;;;;5111312;28;20080;-77
2021/10/14 05:57:54;;;;;;;6.22;2.63;;;13.60;92.30;;;;;;5112037;28;20036;-76
2021/10/14 06:00:21;;;;;;;12.30;3.22;;;13.70;92.60;;;;;;5111825;28;20027;-76
2021/10/14 06:02:47;;;;;;;5.75;2.42;;;13.60;92.40;;;;;;5111604;28;20032;-78
2021/10/14 06:05:12;;;;;;;9.63;2.90;;;13.70;92.40;;;;;;5111507;28;20374;-77
2021/10/14 06:07:38;;;;;;;5.35;2.70;;;13.70;92.40;;;;;;5111580;28;20036;-77
2021/10/14 06:10:05;;;;;;;7.63;2.85;;;13.70;92.40;;;;;;5093325;28;20032;-78
2021/10/14 06:12:30;;;;;;;5.90;2.80;;;13.70;92.40;;;;;;5110541;28;20031;-77
2021/10/14 06:14:56;;;;;;;7.65;2.97;;;13.70;92.40;;;;;;5110264;28;20161;-77
2021/10/14 06:17:22;;;;;;;5.43;2.42;;;13.60;92.70;;;;;;5110192;28;20023;-77
2021/10/14 06:19:47;;;;;;;8.77;3.55;;;13.70;92.50;;;;;;5110202;28;20035;-77
2021/10/14 06:22:13;;;;;;;6.90;2.55;;;13.70;92.50;;;;;;5110307;28;20097;-76
2021/10/14 06:24:39;;;;;;;8.77;3.15;;;13.70;92.50;;;;;;5111399;28;20042;-76
2021/10/14 06:27:05;;;;;;;6.65;3.03;;;13.70;92.50;;;;;;5111408;28;20039;-77
2021/10/14 06:29:30;;;;;;;5.63;2.80;;;13.70;92.50;;;;;;5110009;28;20077;-77
2021/10/14 06:31:56;;;;;;;7.38;3.05;;;13.70;92.50;;;;;;5109878;28;20039;-77
2021/10/14 06:34:22;;;;;;;6.38;2.95;;;13.70;92.50;;;;;;5093203;28;20025;-76
2021/10/14 06:36:47;;;;;;;9.65;3.88;;;13.70;92.50;;;;;;5110295;28;20055;-76
2021/10/14 06:39:13;;;;;;;9.77;2.70;;;13.80;92.60;;;;;;5093139;28;20057;-78
2021/10/14 06:41:39;;;;;;;8.15;2.70;;;13.80;92.50;;;;;;5076215;28;20085;-77
2021/10/14 06:44:07;;;;;;;5.05;2.38;;;13.80;92.50;;;;;;5111142;28;20470;-77
2021/10/14 06:46:35;;;;;;;7.60;2.53;;;13.80;92.50;;;;;;5111461;28;20028;-76
2021/10/14 06:49:01;;;;;;;9.18;3.53;;;13.80;92.50;;;;;;5112712;28;20430;-76
2021/10/14 06:51:27;;;;;;;5.90;2.50;;;13.80;92.50;;;;;;5114695;28;20067;-78
2021/10/14 06:53:53;;;;;;;8.00;2.85;;;13.80;92.50;;;;;;5113706;28;20400;-77
2021/10/14 06:56:18;;;;;;;7.90;3.42;;;13.90;92.50;;;;;;5096963;28;20051;-78
2021/10/14 06:58:44;;;;;;;9.05;2.60;;;13.90;92.50;;;;;;5114194;28;20035;-77
2021/10/14 07:01:10;;;;;;;7.68;2.60;;;13.90;92.50;;;;;;5079448;28;20032;-77
2021/10/14 07:03:35;;;;;;;7.95;2.97;;;13.90;92.40;;;;;;5114851;28;20037;-76
2021/10/14 07:06:01;;;;;;;5.55;2.65;;;13.90;92.40;;;;;;5096585;28;20028;-77
2021/10/14 07:08:27;;;;;;;66.65;9.48;;;13.90;92.40;;;;;;5114676;28;20154;-78
2021/10/14 07:10:53;;;;;;;10.40;3.28;;;13.90;92.40;;;;;;5114905;28;20085;-78
2021/10/14 07:13:19;;;;;;;6.65;2.97;;;13.90;92.40;;;;;;5114608;28;20363;-78
2021/10/14 07:15:45;;;;;;;6.80;2.70;;;14.00;92.40;;;;;;5114183;28;20477;-78
2021/10/14 07:18:10;;;;;;;10.93;2.78;;;13.90;92.40;;;;;;5114401;28;20028;-78
2021/10/14 07:20:37;;;;;;;7.68;3.20;;;13.90;92.40;;;;;;5113338;28;20119;-78
2021/10/14 07:23:08;;;;;;;;;;;14.00;92.40;;;;;;5114184;28;20043;-78
2021/10/14 07:25:34;;;;;;;7.82;3.13;;;14.00;92.40;;;;;;5114592;28;20051;-77
2021/10/14 07:28:00;;;;;;;8.95;2.65;;;14.00;92.30;;;;;;5114480;28;20106;-74
2021/10/14 07:30:26;;;;;;;5.97;2.95;;;14.00;92.30;;;;;;5112842;28;20341;-77
2021/10/14 07:32:52;;;;;;;7.15;3.10;;;14.00;92.30;;;;;;5115095;27;20036;-79
2021/10/14 07:35:20;;;;;;;7.72;3.20;;;14.00;92.30;;;;;;5114418;28;20483;-78
2021/10/14 07:37:46;;;;;;;11.55;2.78;;;14.00;92.40;;;;;;5112832;28;20428;-78
2021/10/14 07:40:12;;;;;;;;;;;14.00;92.40;;;;;;5114197;28;20020;-76
2021/10/14 07:42:38;;;;;;;6.22;2.72;;;14.10;92.40;;;;;;5113944;28;19908;-78
2021/10/14 07:45:04;;;;;;;6.55;3.45;;;14.10;92.30;;;;;;5112547;28;20035;-78
2021/10/14 07:47:30;;;;;;;10.27;3.53;;;14.10;92.30;;;;;;5113960;28;20034;-77
2021/10/14 07:49:56;;;;;;;8.48;3.05;;;14.10;92.30;;;;;;5113445;28;20135;-78
2021/10/14 07:52:22;;;;;;;9.32;3.10;;;14.10;92.30;;;;;;5113651;28;20032;-77
2021/10/14 07:54:48;;;;;;;6.38;2.50;;;14.10;92.30;;;;;;5113293;28;20072;-77
2021/10/14 07:57:15;;;;;;;;;;;14.10;92.30;;;;;;5114042;28;20317;-77
2021/10/14 07:59:41;;;;;;;6.25;2.85;;;14.10;92.30;;;;;;5111316;28;19947;-77
2021/10/14 08:02:07;;;;;;;9.48;2.92;;;14.20;92.30;;;;;;5111710;28;20035;-77
2021/10/14 08:04:32;;;;;;;6.07;2.70;;;14.10;92.40;;;;;;5112017;28;20035;-77
2021/10/14 08:06:58;;;;;;;16.08;4.28;;;14.20;92.50;;;;;;5112248;28;20443;-78
2021/10/14 08:09:24;;;;;;;10.63;3.92;;;14.20;92.40;;;;;;5112146;28;20473;-78
2021/10/14 08:11:50;;;;;;;9.73;4.53;;;14.20;92.40;;;;;;5113327;28;20027;-78
2021/10/14 08:14:16;;;;;;;10.18;3.00;;;14.30;92.40;;;;;;5077875;28;20561;-78
2021/10/14 08:16:41;;;;;;;7.25;2.35;;;14.30;92.40;;;;;;5111833;28;20133;-78
2021/10/14 08:19:07;;;;;;;12.70;3.75;;;14.30;92.40;;;;;;5111835;28;20031;-77
2021/10/14 08:21:33;;;;;;;9.85;3.22;;;14.40;92.30;;;;;;5113024;28;20032;-77
2021/10/14 08:23:59;;;;;;;7.70;3.10;;;14.40;92.40;;;;;;5113273;28;20493;-77
2021/10/14 08:26:24;;;;;;;6.60;2.75;;;14.50;92.40;;;;;;5094510;28;20060;-78
2021/10/14 08:28:50;;;;;;;7.18;3.13;;;14.50;92.30;;;;;;5111897;28;20034;-78
2021/10/14 08:31:16;;;;;;;8.85;3.10;;;14.50;92.20;;;;;;5111587;28;20036;-77
2021/10/14 08:33:42;;;;;;;5.85;2.75;;;14.50;92.20;;;;;;5112965;28;20031;-77
2021/10/14 08:36:08;;;;;;;6.50;2.45;;;14.60;92.30;;;;;;5111602;28;20062;-77
2021/10/14 08:38:33;;;;;;;;;;;14.60;92.20;;;;;;5113607;28;20074;-78
2021/10/14 08:40:59;;;;;;;10.35;2.95;;;14.60;92.20;;;;;;5112843;28;19949;-78
2021/10/14 08:43:31;;;;;;;7.82;2.85;;;14.60;92.20;;;;;;5112931;28;20032;-78
2021/10/14 08:45:57;;;;;;;5.60;2.85;;;14.60;92.20;;;;;;5106153;28;20470;-77
2021/10/14 08:48:24;;;;;;;5.90;2.45;;;14.70;92.20;;;;;;5102008;28;20084;-77
2021/10/14 08:50:50;;;;;;;11.68;3.05;;;14.70;92.20;;;;;;5097247;28;20116;-78
2021/10/14 08:53:16;;;;;;;6.15;2.83;;;14.70;92.10;;;;;;5109038;28;20039;-78
2021/10/14 08:55:42;;;;;;;;;;;14.80;92.10;;;;;;5104189;28;20032;-79
2021/10/14 08:58:09;;;;;;;7.70;3.00;;;14.80;92.10;;;;;;5104411;28;19908;-78
2021/10/14 09:00:37;;;;;;;8.75;3.92;;;14.90;92.10;;;;;;5101011;28;20024;-79
2021/10/14 09:03:28;;;;;;;13.27;4.05;;;14.90;92.10;;;;;;5102577;28;20103;-77
2021/10/14 09:05:55;;;;;;;8.18;3.15;;;14.90;92.20;;;;;;5101402;28;20048;-77
2021/10/14 09:08:51;;;;;;;7.75;2.97;;;15.00;92.10;;;;;;5110222;28;20036;-78
2021/10/14 09:11:21;;;;;;;6.63;2.60;;;15.00;92.00;;;;;;5110143;28;20092;-78
2021/10/14 09:13:51;;;;;;;5.78;2.70;;;15.00;91.90;;;;;;5112057;28;20030;-77
2021/10/14 09:16:30;;;;;;;7.72;3.08;;;15.10;91.90;;;;;;5113697;28;20032;-79
2021/10/14 09:19:10;;;;;;;7.10;2.60;;;15.10;91.80;;;;;;5113509;28;20050;-77
2021/10/14 09:21:36;;;;;;;9.18;3.58;;;15.00;91.80;;;;;;5112921;28;20042;-77
2021/10/14 09:24:24;;;;;;;12.15;3.22;;;15.00;91.80;;;;;;5112640;28;20027;-78
2021/10/14 09:26:49;;;;;;;9.00;3.53;;;15.00;91.90;;;;;;5111671;28;20481;-75
2021/10/14 09:29:15;;;;;;;8.07;3.00;;;15.00;91.80;;;;;;5105683;28;20055;-76
2021/10/14 09:32:02;;;;;;;8.52;3.22;;;15.00;91.80;;;;;;5108444;28;20526;-78
2021/10/14 09:34:49;;;;;;;7.43;3.60;;;15.00;91.80;;;;;;5103806;28;20107;-76
2021/10/14 09:37:17;;;;;;;10.33;3.10;;;15.00;91.80;;;;;;5108272;28;20028;-76
2021/10/14 09:40:06;;;;;;;9.80;3.40;;;15.00;91.80;;;;;;5105141;28;20431;-76
2021/10/14 09:42:39;;;;;;;9.45;3.40;;;15.00;91.80;;;;;;5096253;28;20020;-75
2021/10/14 09:45:30;;;;;;;10.48;3.20;;;15.10;91.80;;;;;;5106774;28;20011;-76
2021/10/14 09:48:08;;;;;;;10.30;3.00;;;15.10;91.80;;;;;;5109456;28;20024;-76
2021/10/14 09:50:42;;;;;;;15.63;3.28;;;15.10;91.80;;;;;;5106962;28;20044;-76
2021/10/14 09:53:18;;;;;;;11.55;3.00;;;15.10;91.70;;;;;;5107426;28;20024;-77
2021/10/14 09:55:45;;;;;;;;;;;15.20;91.70;;;;;;5084268;28;20031;-77
2021/10/14 09:58:12;;;;;;;11.73;3.17;;;15.30;91.70;;;;;;5096110;28;19911;-79
2021/10/14 10:00:38;;;;;;;8.77;2.90;;;15.30;91.60;;;;;;5102419;28;20104;-76
2021/10/14 10:03:08;;;;;;;7.82;3.33;;;15.30;91.60;;;;;;5105115;28;20038;-76
2021/10/14 10:05:35;;;;;;;9.13;2.88;;;15.30;91.60;;;;;;5096257;28;20028;-77
2021/10/14 10:08:19;;;;;;;8.38;2.67;;;15.40;91.50;;;;;;5106165;28;20107;-77
2021/10/14 10:10:45;;;;;;;8.80;3.13;;;15.50;91.60;;;;;;5100914;28;20108;-77
2021/10/14 10:13:12;;;;;;;9.57;3.30;;;15.50;91.30;;;;;;5092482;28;20465;-76
2021/10/14 10:15:46;;;;;;;10.23;3.20;;;15.50;91.30;;;;;;5099920;28;20031;-77
2021/10/14 10:18:42;;;;;;;8.55;3.65;;;15.60;91.20;;;;;;5075252;28;20043;-77
2021/10/14 10:21:09;;;;;;;7.97;3.10;;;15.60;91.10;;;;;;5078519;28;20024;-75
2021/10/14 10:23:48;;;;;;;7.70;3.25;;;15.60;91.10;;;;;;5097977;28;20035;-77
2021/10/14 10:26:33;;;;;;;9.25;2.92;;;15.70;91.10;;;;;;5078675;28;20028;-76
2021/10/14 10:29:22;;;;;;;6.10;2.42;;;15.80;91.00;;;;;;5096869;28;20030;-76
2021/10/14 10:31:56;;;;;;;6.20;2.50;;;15.80;90.80;;;;;;5092948;28;20559;-79
2021/10/14 10:37:16;;;;;;;9.13;2.63;;;16.00;90.80;;;;;;5097335;28;20529;-76
2021/10/14 10:39:49;;;;;;;8.98;3.42;;;16.00;90.60;;;;;;5095920;28;20107;-77
2021/10/14 10:42:41;;;;;;;7.57;2.88;;;16.10;90.60;;;;;;5096192;28;20112;-75
2021/10/14 10:45:17;;;;;;;7.22;2.53;;;16.10;90.50;;;;;;5087147;28;20040;-77
2021/10/14 10:47:49;;;;;;;7.28;2.53;;;16.20;90.40;;;;;;5095903;28;20418;-76
2021/10/14 10:50:22;;;;;;;9.00;2.30;;;16.20;90.40;;;;;;5095457;28;20060;-77
2021/10/14 10:53:01;;;;;;;9.73;2.35;;;16.20;90.20;;;;;;5095895;28;20032;-76
2021/10/14 10:55:26;;;;;;;6.25;2.08;;;16.30;90.20;;;;;;5095177;28;20347;-75
2021/10/14 10:57:54;;;;;;;5.85;2.30;;;16.40;90.20;;;;;;5095837;28;20027;-76
2021/10/14 11:00:23;;;;;;;8.13;2.83;;;16.50;89.80;;;;;;5094488;28;20025;-75
2021/10/14 11:03:08;;;;;;;8.00;3.00;;;16.60;89.60;;;;;;5093512;28;20024;-77
2021/10/14 11:05:53;;;;;;;6.45;3.50;;;16.70;89.00;;;;;;5095594;28;20028;-76
2021/10/14 11:08:24;;;;;;;7.30;2.70;;;16.70;88.60;;;;;;5104354;28;20122;-77
2021/10/14 11:10:53;;;;;;;8.23;2.35;;;16.80;88.40;;;;;;5114400;28;20059;-77
2021/10/14 11:13:20;;;;;;;6.30;2.30;;;16.80;87.60;;;;;;5115863;28;20035;-75
2021/10/14 11:15:56;;;;;;;8.35;2.95;;;16.80;86.90;;;;;;5115796;28;20484;-76
2021/10/14 11:18:24;;;;;;;8.85;2.40;;;16.80;87.10;;;;;;5114564;28;20038;-78
2021/10/14 11:21:01;;;;;;;8.50;2.92;;;16.80;87.10;;;;;;5114649;28;20484;-75
2021/10/14 11:23:51;;;;;;;12.73;3.45;;;16.90;86.80;;;;;;5116509;28;20020;-74
2021/10/14 11:26:22;;;;;;;7.18;2.60;;;16.90;86.70;;;;;;5114934;28;20034;-75
2021/10/14 11:28:53;;;;;;;11.43;3.05;;;17.00;86.60;;;;;;5114277;28;20077;-75
2021/10/14 11:31:23;;;;;;;7.85;2.05;;;17.10;86.10;;;;;;5115749;28;20107;-77
2021/10/14 11:33:49;;;;;;;10.32;2.58;;;17.00;85.80;;;;;;5114821;28;20126;-73
2021/10/14 11:36:14;;;;;;;6.75;2.58;;;17.00;85.60;;;;;;5113906;28;20107;-77
2021/10/14 11:38:40;;;;;;;7.93;2.15;;;17.00;85.50;;;;;;5115305;28;20039;-76
2021/10/14 11:41:15;;;;;;;6.88;2.10;;;17.00;85.00;;;;;;5114641;28;20486;-79
2021/10/14 11:43:41;;;;;;;6.50;1.67;;;16.90;85.00;;;;;;5115910;28;20027;-75
2021/10/14 11:46:07;;;;;;;6.43;1.70;;;16.90;84.70;;;;;;5114201;28;20366;-76
2021/10/14 11:48:35;;;;;;;8.30;1.77;;;16.90;84.70;;;;;;5097001;28;20031;-78
2021/10/14 11:51:09;;;;;;;6.25;2.20;;;16.90;85.20;;;;;;5113021;28;20044;-75
2021/10/14 11:53:38;;;;;;;6.72;2.25;;;16.90;84.40;;;;;;5114182;28;20058;-75
2021/10/14 11:56:06;;;;;;;6.30;2.70;;;16.90;83.90;;;;;;5117202;28;20020;-76
2021/10/14 11:58:33;;;;;;;7.65;2.30;;;16.90;83.80;;;;;;5116526;28;20053;-76
2021/10/14 12:01:03;;;;;;;7.05;2.30;;;16.90;83.70;;;;;;5112872;28;20091;-79
2021/10/14 12:03:31;;;;;;;8.85;2.90;;;16.90;83.60;;;;;;5107026;28;20011;-78
2021/10/14 12:05:57;;;;;;;9.00;2.53;;;16.90;83.80;;;;;;5102165;28;20379;-76
2021/10/14 12:08:23;;;;;;;7.35;2.45;;;17.00;83.60;;;;;;5113537;28;20039;-80
2021/10/14 12:10:54;;;;;;;8.60;2.45;;;17.10;83.60;;;;;;5114613;28;20076;-77
2021/10/14 12:13:27;;;;;;;9.20;2.47;;;17.10;83.30;;;;;;5114928;28;20059;-77
2021/10/14 12:16:09;;;;;;;6.55;2.53;;;17.10;83.00;;;;;;5113788;28;20047;-75
2021/10/14 12:18:37;;;;;;;7.72;2.33;;;17.10;83.30;;;;;;5107328;28;20032;-76
2021/10/14 12:21:30;;;;;;;9.98;2.30;;;17.10;82.90;;;;;;5113616;28;20019;-76
2021/10/14 12:24:20;;;;;;;6.32;3.20;;;17.10;82.90;;;;;;5113758;28;20051;-76
2021/10/14 12:26:48;;;;;;;10.88;3.30;;;17.00;82.60;;;;;;5109403;28;20034;-74
2021/10/14 12:29:32;;;;;;;8.00;3.58;;;17.10;82.60;;;;;;5105051;28;20063;-76
2021/10/14 12:32:06;;;;;;;9.65;3.65;;;17.00;82.10;;;;;;5110030;28;20112;-76
2021/10/14 12:34:55;;;;;;;9.52;3.60;;;17.00;82.00;;;;;;5104979;28;20024;-76
2021/10/14 12:37:27;;;;;;;7.45;2.65;;;17.00;82.20;;;;;;5115076;28;20047;-76
2021/10/14 12:40:20;;;;;;;7.90;3.10;;;17.00;82.00;;;;;;5114768;28;20049;-77
2021/10/14 12:43:07;;;;;;;6.28;2.55;;;17.10;81.90;;;;;;5109380;28;20047;-76
2021/10/14 12:45:42;;;;;;;7.63;3.20;;;17.10;81.70;;;;;;5097017;28;20076;-74
2021/10/14 12:48:19;;;;;;;6.85;2.80;;;17.20;81.90;;;;;;5094285;28;20080;-79
2021/10/14 12:53:23;;;;;;;10.48;3.88;;;17.30;81.80;;;;;;5093790;28;20466;-76
2021/10/14 12:56:00;;;;;;;8.73;3.72;;;17.40;81.60;;;;;;5076273;28;20032;-73
2021/10/14 12:58:27;;;;;;;11.13;4.07;;;17.40;81.30;;;;;;5092129;28;20397;-76
2021/10/14 13:01:10;;;;;;;8.50;3.30;;;17.40;81.00;;;;;;5093836;28;20024;-77